sensor_id;sensor_type;location;lat;lon;timestamp;P1;durP1;ratioP1;P2;durP2;ratioP2
8993;SDS011;4532;50.886;4.700;2022-12-29T00:01:01;1.33;;;0.70;;
8993;SDS011;4532;50.886;4.700;2022-12-29T00:03:28;1.40;;;1.10;;
8993;SDS011;4532;50.886;4.700;2022-12-29T00:05:57;1.10;;;1.00;;
8993;SDS011;4532;50.886;4.700;2022-12-29T00:08:24;0.80;;;0.73;;
8993;SDS011;4532;50.886;4.700;2022-12-29T00:11:07;1.23;;;0.77;;
8993;SDS011;4532;50.886;4.700;2022-12-29T00:13:35;1.87;;;1.20;;
8993;SDS011;4532;50.886;4.700;2022-12-29T00:16:24;1.30;;;0.80;;
8993;SDS011;4532;50.886;4.700;2022-12-29T00:18:51;2.00;;;0.87;;
8993;SDS011;4532;50.886;4.700;2022-12-29T00:21:19;2.73;;;0.80;;
8993;SDS011;4532;50.886;4.700;2022-12-29T00:24:21;1.63;;;0.80;;
8993;SDS011;4532;50.886;4.700;2022-12-29T00:26:52;1.80;;;0.60;;
8993;SDS011;4532;50.886;4.700;2022-12-29T00:29:50;0.70;;;0.70;;
8993;SDS011;4532;50.886;4.700;2022-12-29T00:32:36;1.07;;;0.70;;
8993;SDS011;4532;50.886;4.700;2022-12-29T00:35:28;1.40;;;0.90;;
8993;SDS011;4532;50.886;4.700;2022-12-29T00:38:00;2.30;;;0.90;;
8993;SDS011;4532;50.886;4.700;2022-12-29T00:40:49;1.60;;;0.63;;
8993;SDS011;4532;50.886;4.700;2022-12-29T00:43:35;0.83;;;0.60;;
8993;SDS011;4532;50.886;4.700;2022-12-29T00:46:20;1.50;;;0.60;;
8993;SDS011;4532;50.886;4.700;2022-12-29T00:48:50;2.03;;;0.67;;
8993;SDS011;4532;50.886;4.700;2022-12-29T00:51:38;2.93;;;0.80;;
8993;SDS011;4532;50.886;4.700;2022-12-29T00:54:09;3.13;;;0.60;;
8993;SDS011;4532;50.886;4.700;2022-12-29T00:56:36;2.07;;;0.70;;
8993;SDS011;4532;50.886;4.700;2022-12-29T00:59:04;2.73;;;0.60;;
8993;SDS011;4532;50.886;4.700;2022-12-29T01:01:35;3.53;;;0.80;;
8993;SDS011;4532;50.886;4.700;2022-12-29T01:04:04;3.43;;;0.63;;
8993;SDS011;4532;50.886;4.700;2022-12-29T01:06:35;1.90;;;0.70;;
8993;SDS011;4532;50.886;4.700;2022-12-29T01:09:06;2.33;;;0.90;;
8993;SDS011;4532;50.886;4.700;2022-12-29T01:11:55;3.90;;;1.00;;
8993;SDS011;4532;50.886;4.700;2022-12-29T01:14:22;2.87;;;0.80;;
8993;SDS011;4532;50.886;4.700;2022-12-29T01:16:53;4.63;;;0.90;;
8993;SDS011;4532;50.886;4.700;2022-12-29T01:19:23;2.63;;;0.80;;
8993;SDS011;4532;50.886;4.700;2022-12-29T01:21:51;2.77;;;0.80;;
8993;SDS011;4532;50.886;4.700;2022-12-29T01:24:21;4.97;;;0.73;;
8993;SDS011;4532;50.886;4.700;2022-12-29T01:26:52;3.53;;;1.00;;
8993;SDS011;4532;50.886;4.700;2022-12-29T01:29:22;2.47;;;0.80;;
8993;SDS011;4532;50.886;4.700;2022-12-29T01:31:51;1.50;;;0.70;;
8993;SDS011;4532;50.886;4.700;2022-12-29T01:34:18;2.33;;;0.90;;
8993;SDS011;4532;50.886;4.700;2022-12-29T01:36:48;3.10;;;0.70;;
8993;SDS011;4532;50.886;4.700;2022-12-29T01:39:15;1.77;;;0.80;;
8993;SDS011;4532;50.886;4.700;2022-12-29T01:41:42;2.83;;;1.00;;
8993;SDS011;4532;50.886;4.700;2022-12-29T01:47:38;3.53;;;1.03;;
8993;SDS011;4532;50.886;4.700;2022-12-29T01:53:11;3.23;;;1.00;;
8993;SDS011;4532;50.886;4.700;2022-12-29T01:55:58;0.90;;;0.60;;
8993;SDS011;4532;50.886;4.700;2022-12-29T01:58:29;1.77;;;0.80;;
8993;SDS011;4532;50.886;4.700;2022-12-29T02:01:00;3.97;;;1.10;;
8993;SDS011;4532;50.886;4.700;2022-12-29T02:03:28;3.03;;;1.07;;
8993;SDS011;4532;50.886;4.700;2022-12-29T02:06:05;1.83;;;0.80;;
8993;SDS011;4532;50.886;4.700;2022-12-29T02:08:49;2.67;;;0.93;;
8993;SDS011;4532;50.886;4.700;2022-12-29T02:11:18;1.57;;;0.70;;
8993;SDS011;4532;50.886;4.700;2022-12-29T02:13:48;3.53;;;0.93;;
8993;SDS011;4532;50.886;4.700;2022-12-29T02:16:31;1.20;;;0.80;;
8993;SDS011;4532;50.886;4.700;2022-12-29T02:19:32;1.27;;;0.73;;
8993;SDS011;4532;50.886;4.700;2022-12-29T02:30:51;2.00;;;0.60;;
8993;SDS011;4532;50.886;4.700;2022-12-29T02:33:48;0.53;;;0.40;;
8993;SDS011;4532;50.886;4.700;2022-12-29T02:41:56;0.67;;;0.40;;
8993;SDS011;4532;50.886;4.700;2022-12-29T02:44:35;1.10;;;0.23;;
8993;SDS011;4532;50.886;4.700;2022-12-29T02:47:27;1.80;;;0.77;;
8993;SDS011;4532;50.886;4.700;2022-12-29T02:50:06;0.80;;;0.40;;
8993;SDS011;4532;50.886;4.700;2022-12-29T02:52:42;0.67;;;0.50;;
8993;SDS011;4532;50.886;4.700;2022-12-29T02:55:16;0.77;;;0.33;;
8993;SDS011;4532;50.886;4.700;2022-12-29T02:57:48;0.97;;;0.30;;
8993;SDS011;4532;50.886;4.700;2022-12-29T03:00:32;0.47;;;0.37;;
8993;SDS011;4532;50.886;4.700;2022-12-29T03:08:50;1.47;;;0.40;;
8993;SDS011;4532;50.886;4.700;2022-12-29T03:11:31;2.00;;;0.40;;
8993;SDS011;4532;50.886;4.700;2022-12-29T03:14:26;0.67;;;0.20;;
8993;SDS011;4532;50.886;4.700;2022-12-29T03:17:27;0.37;;;0.20;;
8993;SDS011;4532;50.886;4.700;2022-12-29T03:20:07;0.67;;;0.37;;
8993;SDS011;4532;50.886;4.700;2022-12-29T03:22:38;2.37;;;0.37;;
8993;SDS011;4532;50.886;4.700;2022-12-29T03:25:13;1.87;;;0.43;;
8993;SDS011;4532;50.886;4.700;2022-12-29T03:27:58;1.97;;;0.40;;
8993;SDS011;4532;50.886;4.700;2022-12-29T03:30:28;0.87;;;0.30;;
8993;SDS011;4532;50.886;4.700;2022-12-29T03:32:58;1.33;;;0.30;;
8993;SDS011;4532;50.886;4.700;2022-12-29T03:35:31;1.67;;;0.40;;
8993;SDS011;4532;50.886;4.700;2022-12-29T03:38:09;0.50;;;0.23;;
8993;SDS011;4532;50.886;4.700;2022-12-29T03:40:48;0.73;;;0.30;;
8993;SDS011;4532;50.886;4.700;2022-12-29T03:43:21;1.17;;;0.33;;
8993;SDS011;4532;50.886;4.700;2022-12-29T03:45:49;2.10;;;0.40;;
8993;SDS011;4532;50.886;4.700;2022-12-29T03:48:19;0.93;;;0.20;;
8993;SDS011;4532;50.886;4.700;2022-12-29T03:50:46;1.10;;;0.20;;
8993;SDS011;4532;50.886;4.700;2022-12-29T03:53:13;1.90;;;0.50;;
8993;SDS011;4532;50.886;4.700;2022-12-29T03:55:40;2.30;;;0.60;;
8993;SDS011;4532;50.886;4.700;2022-12-29T03:58:10;1.27;;;0.50;;
8993;SDS011;4532;50.886;4.700;2022-12-29T04:00:37;2.33;;;0.50;;
8993;SDS011;4532;50.886;4.700;2022-12-29T04:03:04;2.20;;;0.60;;
8993;SDS011;4532;50.886;4.700;2022-12-29T04:05:36;3.70;;;0.70;;
8993;SDS011;4532;50.886;4.700;2022-12-29T04:08:04;3.13;;;0.90;;
8993;SDS011;4532;50.886;4.700;2022-12-29T04:10:31;1.73;;;0.60;;
8993;SDS011;4532;50.886;4.700;2022-12-29T04:13:04;4.13;;;0.80;;
8993;SDS011;4532;50.886;4.700;2022-12-29T04:15:31;2.53;;;0.60;;
8993;SDS011;4532;50.886;4.700;2022-12-29T04:17:58;3.23;;;1.03;;
8993;SDS011;4532;50.886;4.700;2022-12-29T04:20:25;4.00;;;0.77;;
8993;SDS011;4532;50.886;4.700;2022-12-29T04:23:11;3.07;;;0.90;;
8993;SDS011;4532;50.886;4.700;2022-12-29T04:25:38;2.43;;;0.87;;
8993;SDS011;4532;50.886;4.700;2022-12-29T04:28:05;3.50;;;1.00;;
8993;SDS011;4532;50.886;4.700;2022-12-29T04:30:35;4.37;;;0.83;;
8993;SDS011;4532;50.886;4.700;2022-12-29T04:33:02;3.40;;;0.70;;
8993;SDS011;4532;50.886;4.700;2022-12-29T04:35:31;3.23;;;0.80;;
8993;SDS011;4532;50.886;4.700;2022-12-29T04:37:59;1.47;;;0.63;;
8993;SDS011;4532;50.886;4.700;2022-12-29T04:40:26;3.80;;;0.63;;
8993;SDS011;4532;50.886;4.700;2022-12-29T04:42:53;2.00;;;0.67;;
8993;SDS011;4532;50.886;4.700;2022-12-29T04:45:21;2.80;;;0.70;;
8993;SDS011;4532;50.886;4.700;2022-12-29T04:47:50;5.03;;;1.10;;
8993;SDS011;4532;50.886;4.700;2022-12-29T04:50:20;3.03;;;0.63;;
8993;SDS011;4532;50.886;4.700;2022-12-29T04:52:47;2.90;;;0.83;;
8993;SDS011;4532;50.886;4.700;2022-12-29T04:55:14;4.80;;;0.90;;
8993;SDS011;4532;50.886;4.700;2022-12-29T04:57:43;4.13;;;0.63;;
8993;SDS011;4532;50.886;4.700;2022-12-29T05:00:13;3.70;;;1.57;;
8993;SDS011;4532;50.886;4.700;2022-12-29T05:02:41;2.53;;;0.70;;
8993;SDS011;4532;50.886;4.700;2022-12-29T05:05:08;4.77;;;0.90;;
8993;SDS011;4532;50.886;4.700;2022-12-29T05:07:36;4.43;;;0.70;;
8993;SDS011;4532;50.886;4.700;2022-12-29T05:10:06;4.00;;;0.90;;
8993;SDS011;4532;50.886;4.700;2022-12-29T05:12:34;4.67;;;0.90;;
8993;SDS011;4532;50.886;4.700;2022-12-29T05:15:03;5.07;;;0.90;;
8993;SDS011;4532;50.886;4.700;2022-12-29T05:17:35;5.67;;;1.03;;
8993;SDS011;4532;50.886;4.700;2022-12-29T05:20:03;5.77;;;1.17;;
8993;SDS011;4532;50.886;4.700;2022-12-29T05:22:31;4.77;;;0.80;;
8993;SDS011;4532;50.886;4.700;2022-12-29T05:25:01;7.83;;;0.90;;
8993;SDS011;4532;50.886;4.700;2022-12-29T05:27:31;5.87;;;0.90;;
8993;SDS011;4532;50.886;4.700;2022-12-29T05:29:59;5.03;;;1.37;;
8993;SDS011;4532;50.886;4.700;2022-12-29T05:32:26;4.33;;;0.77;;
8993;SDS011;4532;50.886;4.700;2022-12-29T05:34:56;2.87;;;0.70;;
8993;SDS011;4532;50.886;4.700;2022-12-29T05:37:23;7.00;;;1.20;;
8993;SDS011;4532;50.886;4.700;2022-12-29T05:39:52;3.43;;;0.90;;
8993;SDS011;4532;50.886;4.700;2022-12-29T05:42:19;4.50;;;1.00;;
8993;SDS011;4532;50.886;4.700;2022-12-29T05:44:47;3.40;;;1.10;;
8993;SDS011;4532;50.886;4.700;2022-12-29T05:47:16;5.63;;;1.10;;
8993;SDS011;4532;50.886;4.700;2022-12-29T05:49:46;3.23;;;1.17;;
8993;SDS011;4532;50.886;4.700;2022-12-29T05:52:15;4.07;;;1.30;;
8993;SDS011;4532;50.886;4.700;2022-12-29T05:54:44;6.70;;;1.37;;
8993;SDS011;4532;50.886;4.700;2022-12-29T05:57:15;6.83;;;1.13;;
8993;SDS011;4532;50.886;4.700;2022-12-29T05:59:43;5.47;;;1.00;;
8993;SDS011;4532;50.886;4.700;2022-12-29T06:02:10;3.93;;;1.40;;
8993;SDS011;4532;50.886;4.700;2022-12-29T06:04:42;4.47;;;1.00;;
8993;SDS011;4532;50.886;4.700;2022-12-29T06:07:09;6.07;;;1.37;;
8993;SDS011;4532;50.886;4.700;2022-12-29T06:09:36;7.13;;;1.53;;
8993;SDS011;4532;50.886;4.700;2022-12-29T06:12:06;8.90;;;1.70;;
8993;SDS011;4532;50.886;4.700;2022-12-29T06:14:33;4.47;;;1.00;;
8993;SDS011;4532;50.886;4.700;2022-12-29T06:17:00;5.40;;;1.37;;
8993;SDS011;4532;50.886;4.700;2022-12-29T06:19:29;7.20;;;1.37;;
8993;SDS011;4532;50.886;4.700;2022-12-29T06:21:59;10.20;;;1.90;;
8993;SDS011;4532;50.886;4.700;2022-12-29T06:24:31;4.50;;;1.10;;
8993;SDS011;4532;50.886;4.700;2022-12-29T06:26:58;9.30;;;2.33;;
8993;SDS011;4532;50.886;4.700;2022-12-29T06:29:28;5.87;;;1.77;;
8993;SDS011;4532;50.886;4.700;2022-12-29T06:31:55;7.13;;;1.47;;
8993;SDS011;4532;50.886;4.700;2022-12-29T06:34:25;4.83;;;1.17;;
8993;SDS011;4532;50.886;4.700;2022-12-29T06:36:54;6.63;;;1.50;;
8993;SDS011;4532;50.886;4.700;2022-12-29T06:39:21;7.17;;;1.80;;
8993;SDS011;4532;50.886;4.700;2022-12-29T06:41:51;8.77;;;1.53;;
8993;SDS011;4532;50.886;4.700;2022-12-29T06:44:21;5.57;;;1.50;;
8993;SDS011;4532;50.886;4.700;2022-12-29T06:46:49;7.57;;;1.30;;
8993;SDS011;4532;50.886;4.700;2022-12-29T06:49:19;5.93;;;1.63;;
8993;SDS011;4532;50.886;4.700;2022-12-29T06:51:46;5.67;;;1.27;;
8993;SDS011;4532;50.886;4.700;2022-12-29T06:54:14;4.30;;;1.40;;
8993;SDS011;4532;50.886;4.700;2022-12-29T06:56:45;8.67;;;1.40;;
8993;SDS011;4532;50.886;4.700;2022-12-29T06:59:12;5.57;;;1.60;;
8993;SDS011;4532;50.886;4.700;2022-12-29T07:01:42;6.53;;;1.33;;
8993;SDS011;4532;50.886;4.700;2022-12-29T07:04:10;7.67;;;1.33;;
8993;SDS011;4532;50.886;4.700;2022-12-29T07:06:42;4.43;;;1.10;;
8993;SDS011;4532;50.886;4.700;2022-12-29T07:09:13;7.23;;;1.57;;
8993;SDS011;4532;50.886;4.700;2022-12-29T07:11:43;4.83;;;1.53;;
8993;SDS011;4532;50.886;4.700;2022-12-29T07:14:15;6.97;;;1.20;;
8993;SDS011;4532;50.886;4.700;2022-12-29T07:16:47;7.43;;;1.80;;
8993;SDS011;4532;50.886;4.700;2022-12-29T07:19:14;5.33;;;1.30;;
8993;SDS011;4532;50.886;4.700;2022-12-29T07:21:45;4.67;;;1.30;;
8993;SDS011;4532;50.886;4.700;2022-12-29T07:24:13;6.93;;;1.50;;
8993;SDS011;4532;50.886;4.700;2022-12-29T07:26:42;8.90;;;1.53;;
8993;SDS011;4532;50.886;4.700;2022-12-29T07:29:11;6.23;;;1.50;;
8993;SDS011;4532;50.886;4.700;2022-12-29T07:31:39;9.00;;;1.50;;
8993;SDS011;4532;50.886;4.700;2022-12-29T07:34:07;7.20;;;1.80;;
8993;SDS011;4532;50.886;4.700;2022-12-29T07:36:39;6.77;;;1.37;;
8993;SDS011;4532;50.886;4.700;2022-12-29T07:39:09;8.13;;;1.30;;
8993;SDS011;4532;50.886;4.700;2022-12-29T07:41:37;7.37;;;1.83;;
8993;SDS011;4532;50.886;4.700;2022-12-29T07:44:08;6.83;;;1.63;;
8993;SDS011;4532;50.886;4.700;2022-12-29T07:46:35;7.90;;;1.63;;
8993;SDS011;4532;50.886;4.700;2022-12-29T07:49:22;5.20;;;1.30;;
8993;SDS011;4532;50.886;4.700;2022-12-29T07:51:53;6.63;;;1.57;;
8993;SDS011;4532;50.886;4.700;2022-12-29T07:54:23;9.40;;;1.97;;
8993;SDS011;4532;50.886;4.700;2022-12-29T07:56:50;7.70;;;2.00;;
8993;SDS011;4532;50.886;4.700;2022-12-29T07:59:20;6.10;;;1.80;;
8993;SDS011;4532;50.886;4.700;2022-12-29T08:01:47;8.10;;;1.30;;
8993;SDS011;4532;50.886;4.700;2022-12-29T08:04:17;8.60;;;1.43;;
8993;SDS011;4532;50.886;4.700;2022-12-29T08:06:44;9.07;;;1.80;;
8993;SDS011;4532;50.886;4.700;2022-12-29T08:09:12;12.10;;;1.90;;
8993;SDS011;4532;50.886;4.700;2022-12-29T08:11:50;10.67;;;1.60;;
8993;SDS011;4532;50.886;4.700;2022-12-29T08:14:20;10.30;;;1.93;;
8993;SDS011;4532;50.886;4.700;2022-12-29T08:16:47;6.33;;;1.40;;
8993;SDS011;4532;50.886;4.700;2022-12-29T08:19:20;7.70;;;1.57;;
8993;SDS011;4532;50.886;4.700;2022-12-29T08:21:47;8.33;;;1.67;;
8993;SDS011;4532;50.886;4.700;2022-12-29T08:24:19;8.53;;;1.80;;
8993;SDS011;4532;50.886;4.700;2022-12-29T08:26:46;8.90;;;1.90;;
8993;SDS011;4532;50.886;4.700;2022-12-29T08:29:18;8.43;;;1.80;;
8993;SDS011;4532;50.886;4.700;2022-12-29T08:31:50;5.97;;;1.43;;
8993;SDS011;4532;50.886;4.700;2022-12-29T08:34:17;10.63;;;2.40;;
8993;SDS011;4532;50.886;4.700;2022-12-29T08:36:45;7.80;;;1.63;;
8993;SDS011;4532;50.886;4.700;2022-12-29T08:39:14;6.97;;;1.70;;
8993;SDS011;4532;50.886;4.700;2022-12-29T08:41:43;10.13;;;2.17;;
8993;SDS011;4532;50.886;4.700;2022-12-29T08:44:16;9.10;;;2.00;;
8993;SDS011;4532;50.886;4.700;2022-12-29T08:46:44;10.73;;;1.97;;
8993;SDS011;4532;50.886;4.700;2022-12-29T08:49:11;9.73;;;2.13;;
8993;SDS011;4532;50.886;4.700;2022-12-29T08:51:38;9.73;;;1.80;;
8993;SDS011;4532;50.886;4.700;2022-12-29T08:54:10;8.70;;;2.00;;
8993;SDS011;4532;50.886;4.700;2022-12-29T08:56:40;10.40;;;1.63;;
8993;SDS011;4532;50.886;4.700;2022-12-29T08:59:07;6.43;;;1.60;;
8993;SDS011;4532;50.886;4.700;2022-12-29T09:01:34;7.53;;;1.87;;
8993;SDS011;4532;50.886;4.700;2022-12-29T09:04:03;6.67;;;1.60;;
8993;SDS011;4532;50.886;4.700;2022-12-29T09:06:42;11.00;;;1.90;;
8993;SDS011;4532;50.886;4.700;2022-12-29T09:09:10;11.67;;;1.90;;
8993;SDS011;4532;50.886;4.700;2022-12-29T09:11:38;8.17;;;1.73;;
8993;SDS011;4532;50.886;4.700;2022-12-29T09:14:06;12.30;;;2.23;;
8993;SDS011;4532;50.886;4.700;2022-12-29T09:16:33;6.30;;;2.03;;
8993;SDS011;4532;50.886;4.700;2022-12-29T09:19:03;7.20;;;1.60;;
8993;SDS011;4532;50.886;4.700;2022-12-29T09:21:31;9.83;;;1.93;;
8993;SDS011;4532;50.886;4.700;2022-12-29T09:23:58;6.50;;;1.73;;
8993;SDS011;4532;50.886;4.700;2022-12-29T09:26:25;6.57;;;2.10;;
8993;SDS011;4532;50.886;4.700;2022-12-29T09:28:53;9.37;;;1.97;;
8993;SDS011;4532;50.886;4.700;2022-12-29T09:31:20;9.20;;;2.37;;
8993;SDS011;4532;50.886;4.700;2022-12-29T09:33:49;8.70;;;2.00;;
8993;SDS011;4532;50.886;4.700;2022-12-29T09:36:22;8.40;;;1.90;;
8993;SDS011;4532;50.886;4.700;2022-12-29T09:38:49;8.93;;;2.30;;
8993;SDS011;4532;50.886;4.700;2022-12-29T09:41:39;9.90;;;2.37;;
8993;SDS011;4532;50.886;4.700;2022-12-29T09:47:31;10.03;;;1.50;;
8993;SDS011;4532;50.886;4.700;2022-12-29T09:50:33;10.60;;;1.93;;
8993;SDS011;4532;50.886;4.700;2022-12-29T09:55:42;9.93;;;2.50;;
8993;SDS011;4532;50.886;4.700;2022-12-29T10:01:04;9.33;;;1.40;;
8993;SDS011;4532;50.886;4.700;2022-12-29T10:03:45;6.43;;;1.67;;
8993;SDS011;4532;50.886;4.700;2022-12-29T10:23:11;10.80;;;1.90;;
8993;SDS011;4532;50.886;4.700;2022-12-29T10:26:13;14.80;;;2.27;;
8993;SDS011;4532;50.886;4.700;2022-12-29T10:31:24;9.60;;;1.97;;
8993;SDS011;4532;50.886;4.700;2022-12-29T10:34:00;10.63;;;1.87;;
8993;SDS011;4532;50.886;4.700;2022-12-29T10:36:43;9.20;;;2.60;;
8993;SDS011;4532;50.886;4.700;2022-12-29T10:39:22;14.97;;;2.10;;
8993;SDS011;4532;50.886;4.700;2022-12-29T10:44:45;9.03;;;1.70;;
8993;SDS011;4532;50.886;4.700;2022-12-29T10:47:16;8.97;;;1.63;;
8993;SDS011;4532;50.886;4.700;2022-12-29T10:49:47;9.80;;;2.20;;
8993;SDS011;4532;50.886;4.700;2022-12-29T10:52:17;14.50;;;2.43;;
8993;SDS011;4532;50.886;4.700;2022-12-29T10:54:57;11.73;;;2.10;;
8993;SDS011;4532;50.886;4.700;2022-12-29T10:57:33;10.10;;;2.27;;
8993;SDS011;4532;50.886;4.700;2022-12-29T11:00:14;8.30;;;1.77;;
8993;SDS011;4532;50.886;4.700;2022-12-29T11:05:35;10.43;;;2.07;;
8993;SDS011;4532;50.886;4.700;2022-12-29T11:08:10;10.40;;;1.80;;
8993;SDS011;4532;50.886;4.700;2022-12-29T11:10:43;10.40;;;2.07;;
8993;SDS011;4532;50.886;4.700;2022-12-29T11:13:15;8.70;;;1.90;;
8993;SDS011;4532;50.886;4.700;2022-12-29T11:15:51;9.20;;;2.20;;
8993;SDS011;4532;50.886;4.700;2022-12-29T11:20:49;10.07;;;1.80;;
8993;SDS011;4532;50.886;4.700;2022-12-29T11:26:13;8.87;;;2.10;;
8993;SDS011;4532;50.886;4.700;2022-12-29T11:29:02;9.57;;;2.20;;
8993;SDS011;4532;50.886;4.700;2022-12-29T11:31:47;11.63;;;2.00;;
8993;SDS011;4532;50.886;4.700;2022-12-29T11:34:17;6.43;;;1.47;;
8993;SDS011;4532;50.886;4.700;2022-12-29T11:36:50;8.63;;;1.67;;
8993;SDS011;4532;50.886;4.700;2022-12-29T11:39:26;9.17;;;2.00;;
8993;SDS011;4532;50.886;4.700;2022-12-29T11:41:57;11.57;;;2.07;;
8993;SDS011;4532;50.886;4.700;2022-12-29T11:44:25;8.77;;;1.90;;
8993;SDS011;4532;50.886;4.700;2022-12-29T11:46:53;11.20;;;2.20;;
8993;SDS011;4532;50.886;4.700;2022-12-29T11:49:24;8.03;;;2.00;;
8993;SDS011;4532;50.886;4.700;2022-12-29T11:51:55;9.37;;;1.60;;
8993;SDS011;4532;50.886;4.700;2022-12-29T11:56:53;8.33;;;2.00;;
8993;SDS011;4532;50.886;4.700;2022-12-29T11:59:24;8.03;;;1.70;;
8993;SDS011;4532;50.886;4.700;2022-12-29T12:01:57;7.57;;;1.93;;
8993;SDS011;4532;50.886;4.700;2022-12-29T12:04:30;7.80;;;1.77;;
8993;SDS011;4532;50.886;4.700;2022-12-29T12:07:16;10.67;;;2.00;;
8993;SDS011;4532;50.886;4.700;2022-12-29T12:09:48;10.00;;;2.00;;
8993;SDS011;4532;50.886;4.700;2022-12-29T12:15:02;8.43;;;1.93;;
8993;SDS011;4532;50.886;4.700;2022-12-29T12:17:31;10.90;;;2.37;;
8993;SDS011;4532;50.886;4.700;2022-12-29T12:22:58;8.40;;;1.90;;
8993;SDS011;4532;50.886;4.700;2022-12-29T12:25:37;8.20;;;1.80;;
8993;SDS011;4532;50.886;4.700;2022-12-29T12:28:21;8.00;;;1.63;;
8993;SDS011;4532;50.886;4.700;2022-12-29T12:31:02;9.50;;;2.03;;
8993;SDS011;4532;50.886;4.700;2022-12-29T12:33:41;8.60;;;1.57;;
8993;SDS011;4532;50.886;4.700;2022-12-29T12:44:29;8.40;;;1.97;;
8993;SDS011;4532;50.886;4.700;2022-12-29T13:21:36;8.27;;;2.07;;
8993;SDS011;4532;50.886;4.700;2022-12-29T13:31:51;6.93;;;1.80;;
8993;SDS011;4532;50.886;4.700;2022-12-29T13:37:11;9.50;;;1.97;;
8993;SDS011;4532;50.886;4.700;2022-12-29T13:39:46;6.57;;;1.87;;
8993;SDS011;4532;50.886;4.700;2022-12-29T13:42:18;6.40;;;1.80;;
8993;SDS011;4532;50.886;4.700;2022-12-29T13:44:48;7.87;;;2.03;;
8993;SDS011;4532;50.886;4.700;2022-12-29T13:47:30;5.60;;;1.50;;
8993;SDS011;4532;50.886;4.700;2022-12-29T13:50:17;8.40;;;1.80;;
8993;SDS011;4532;50.886;4.700;2022-12-29T13:55:37;10.10;;;2.40;;
8993;SDS011;4532;50.886;4.700;2022-12-29T14:03:47;10.27;;;2.10;;
8993;SDS011;4532;50.886;4.700;2022-12-29T14:09:01;8.13;;;2.47;;
8993;SDS011;4532;50.886;4.700;2022-12-29T14:11:35;11.47;;;2.90;;
8993;SDS011;4532;50.886;4.700;2022-12-29T14:17:09;9.63;;;2.00;;
8993;SDS011;4532;50.886;4.700;2022-12-29T14:19:42;10.80;;;2.53;;
8993;SDS011;4532;50.886;4.700;2022-12-29T14:22:11;9.70;;;2.13;;
8993;SDS011;4532;50.886;4.700;2022-12-29T14:24:58;8.50;;;2.33;;
8993;SDS011;4532;50.886;4.700;2022-12-29T14:29:56;11.70;;;2.43;;
8993;SDS011;4532;50.886;4.700;2022-12-29T14:34:59;5.70;;;1.53;;
8993;SDS011;4532;50.886;4.700;2022-12-29T14:37:46;9.77;;;2.20;;
8993;SDS011;4532;50.886;4.700;2022-12-29T14:40:22;12.67;;;2.50;;
8993;SDS011;4532;50.886;4.700;2022-12-29T14:42:54;14.97;;;2.60;;
8993;SDS011;4532;50.886;4.700;2022-12-29T14:45:26;11.70;;;2.97;;
8993;SDS011;4532;50.886;4.700;2022-12-29T14:47:59;15.50;;;2.60;;
8993;SDS011;4532;50.886;4.700;2022-12-29T14:50:40;11.00;;;2.27;;
8993;SDS011;4532;50.886;4.700;2022-12-29T14:53:40;12.40;;;2.57;;
8993;SDS011;4532;50.886;4.700;2022-12-29T14:56:10;10.80;;;2.20;;
8993;SDS011;4532;50.886;4.700;2022-12-29T14:59:00;10.37;;;2.47;;
8993;SDS011;4532;50.886;4.700;2022-12-29T15:01:53;8.33;;;2.20;;
8993;SDS011;4532;50.886;4.700;2022-12-29T15:04:23;10.20;;;2.20;;
8993;SDS011;4532;50.886;4.700;2022-12-29T15:06:59;9.47;;;2.03;;
8993;SDS011;4532;50.886;4.700;2022-12-29T15:09:34;10.37;;;2.30;;
8993;SDS011;4532;50.886;4.700;2022-12-29T15:14:59;8.57;;;2.50;;
8993;SDS011;4532;50.886;4.700;2022-12-29T15:17:33;11.07;;;2.47;;
8993;SDS011;4532;50.886;4.700;2022-12-29T15:20:17;9.97;;;2.20;;
8993;SDS011;4532;50.886;4.700;2022-12-29T15:22:57;11.87;;;2.70;;
8993;SDS011;4532;50.886;4.700;2022-12-29T15:25:27;8.53;;;2.27;;
8993;SDS011;4532;50.886;4.700;2022-12-29T15:28:00;11.40;;;2.13;;
8993;SDS011;4532;50.886;4.700;2022-12-29T15:30:31;7.47;;;1.67;;
8993;SDS011;4532;50.886;4.700;2022-12-29T15:32:58;4.27;;;1.30;;
8993;SDS011;4532;50.886;4.700;2022-12-29T15:37:56;4.57;;;1.27;;
8993;SDS011;4532;50.886;4.700;2022-12-29T15:40:26;6.33;;;1.47;;
8993;SDS011;4532;50.886;4.700;2022-12-29T15:43:08;4.57;;;1.30;;
8993;SDS011;4532;50.886;4.700;2022-12-29T15:45:37;3.87;;;1.13;;
8993;SDS011;4532;50.886;4.700;2022-12-29T15:48:17;2.30;;;0.93;;
8993;SDS011;4532;50.886;4.700;2022-12-29T15:50:48;3.87;;;1.37;;
8993;SDS011;4532;50.886;4.700;2022-12-29T15:53:19;5.37;;;1.30;;
8993;SDS011;4532;50.886;4.700;2022-12-29T15:55:59;4.90;;;1.07;;
8993;SDS011;4532;50.886;4.700;2022-12-29T15:58:43;6.97;;;1.20;;
8993;SDS011;4532;50.886;4.700;2022-12-29T16:01:19;4.30;;;1.20;;
8993;SDS011;4532;50.886;4.700;2022-12-29T16:04:04;2.77;;;1.00;;
8993;SDS011;4532;50.886;4.700;2022-12-29T16:06:37;5.30;;;1.30;;
8993;SDS011;4532;50.886;4.700;2022-12-29T16:09:19;5.67;;;1.20;;
8993;SDS011;4532;50.886;4.700;2022-12-29T16:11:59;5.53;;;1.30;;
8993;SDS011;4532;50.886;4.700;2022-12-29T16:14:34;6.97;;;1.47;;
8993;SDS011;4532;50.886;4.700;2022-12-29T16:17:09;5.20;;;1.40;;
8993;SDS011;4532;50.886;4.700;2022-12-29T16:19:42;5.37;;;1.60;;
8993;SDS011;4532;50.886;4.700;2022-12-29T16:27:51;4.77;;;1.53;;
8993;SDS011;4532;50.886;4.700;2022-12-29T16:30:23;5.80;;;1.70;;
8993;SDS011;4532;50.886;4.700;2022-12-29T16:33:00;7.10;;;1.80;;
8993;SDS011;4532;50.886;4.700;2022-12-29T16:35:51;6.43;;;2.10;;
8993;SDS011;4532;50.886;4.700;2022-12-29T16:38:18;12.10;;;2.47;;
8993;SDS011;4532;50.886;4.700;2022-12-29T16:40:57;9.00;;;2.60;;
8993;SDS011;4532;50.886;4.700;2022-12-29T16:43:32;8.73;;;2.40;;
8993;SDS011;4532;50.886;4.700;2022-12-29T16:46:16;11.33;;;2.40;;
8993;SDS011;4532;50.886;4.700;2022-12-29T16:48:47;10.90;;;2.23;;
8993;SDS011;4532;50.886;4.700;2022-12-29T16:51:32;11.10;;;2.70;;
8993;SDS011;4532;50.886;4.700;2022-12-29T16:54:03;11.33;;;2.67;;
8993;SDS011;4532;50.886;4.700;2022-12-29T16:56:35;12.30;;;3.03;;
8993;SDS011;4532;50.886;4.700;2022-12-29T16:59:04;10.20;;;3.33;;
8993;SDS011;4532;50.886;4.700;2022-12-29T17:01:37;11.33;;;2.77;;
8993;SDS011;4532;50.886;4.700;2022-12-29T17:04:08;10.63;;;3.03;;
8993;SDS011;4532;50.886;4.700;2022-12-29T17:06:37;11.20;;;3.07;;
8993;SDS011;4532;50.886;4.700;2022-12-29T17:09:20;10.87;;;3.00;;
8993;SDS011;4532;50.886;4.700;2022-12-29T17:11:51;14.13;;;2.90;;
8993;SDS011;4532;50.886;4.700;2022-12-29T17:17:16;13.00;;;3.43;;
8993;SDS011;4532;50.886;4.700;2022-12-29T17:19:48;12.40;;;2.83;;
8993;SDS011;4532;50.886;4.700;2022-12-29T17:22:26;13.37;;;3.73;;
8993;SDS011;4532;50.886;4.700;2022-12-29T17:24:55;11.37;;;2.43;;
8993;SDS011;4532;50.886;4.700;2022-12-29T17:30:00;9.47;;;2.50;;
8993;SDS011;4532;50.886;4.700;2022-12-29T17:32:35;16.37;;;3.10;;
8993;SDS011;4532;50.886;4.700;2022-12-29T17:35:05;12.47;;;2.83;;
8993;SDS011;4532;50.886;4.700;2022-12-29T17:37:40;10.50;;;2.60;;
8993;SDS011;4532;50.886;4.700;2022-12-29T17:40:10;9.80;;;3.00;;
8993;SDS011;4532;50.886;4.700;2022-12-29T17:42:41;15.33;;;2.80;;
8993;SDS011;4532;50.886;4.700;2022-12-29T17:45:16;14.47;;;2.53;;
8993;SDS011;4532;50.886;4.700;2022-12-29T17:47:49;14.83;;;4.57;;
8993;SDS011;4532;50.886;4.700;2022-12-29T17:50:22;11.87;;;2.33;;
8993;SDS011;4532;50.886;4.700;2022-12-29T17:53:02;14.40;;;2.77;;
8993;SDS011;4532;50.886;4.700;2022-12-29T17:55:33;15.07;;;2.80;;
8993;SDS011;4532;50.886;4.700;2022-12-29T17:58:22;7.73;;;2.53;;
8993;SDS011;4532;50.886;4.700;2022-12-29T18:00:52;13.97;;;2.57;;
8993;SDS011;4532;50.886;4.700;2022-12-29T18:03:30;13.80;;;2.63;;
8993;SDS011;4532;50.886;4.700;2022-12-29T18:06:02;11.70;;;2.67;;
8993;SDS011;4532;50.886;4.700;2022-12-29T18:08:33;11.57;;;2.90;;
8993;SDS011;4532;50.886;4.700;2022-12-29T18:11:04;11.70;;;2.37;;
8993;SDS011;4532;50.886;4.700;2022-12-29T18:13:40;12.80;;;2.73;;
8993;SDS011;4532;50.886;4.700;2022-12-29T18:16:14;10.83;;;2.17;;
8993;SDS011;4532;50.886;4.700;2022-12-29T18:18:42;8.47;;;2.40;;
8993;SDS011;4532;50.886;4.700;2022-12-29T18:21:13;12.47;;;2.57;;
8993;SDS011;4532;50.886;4.700;2022-12-29T18:23:42;9.47;;;2.17;;
8993;SDS011;4532;50.886;4.700;2022-12-29T18:28:54;11.70;;;2.30;;
8993;SDS011;4532;50.886;4.700;2022-12-29T18:31:23;8.53;;;2.30;;
8993;SDS011;4532;50.886;4.700;2022-12-29T18:33:55;10.13;;;2.30;;